Terminal Aerodrome Forecast
Issued by NWS Sioux Falls, SD

Home | Current Version | Previous Version | Text Only | Print | Product List | Glossary On
Versions: 1 2 3 4 5 6 7 8 9 10 11 12 13 14 15 16 17 18 19 20 21 22 23 24 25 26 27 28 29 30
962
FTUS43 KFSD 221120
TAFSUX
TAF
KSUX 221120Z 2212/2312 15011KT P6SM FEW090 WS020/20045KT
     FM221400 17013G22KT P6SM SKC
     FM221800 18019G28KT P6SM FEW250
     FM230200 17013G20KT P6SM FEW250
     FM230500 17012KT P6SM FEW250 WS020/20040KT=

USA.gov is the U.S. government's official web portal to all federal, state and local government web resources and services.